Marvin, SD (57251)

11:03 AM CDT on August 20, 2014 (GMT -0500)
Rural Summit | Change Station
CLOSE
Current Station
Personal Weather Station
Location: Summit, SD
Elevation: 1913 ft
Nearby Weather Stations

Elev 1913 ft 45.22 °N, 97.08 °W | Updated 11 minutes ago

Clear
Clear
78.1 °F
Feels Like 80 °F
N
9.4
Wind Variable Wind from ESE

Today
High -- | Low -- °F
--% Chance of Precip.
Yesterday
High -- | Low -- °F
Precip. -- in
6:34 AM 8:26 PM
Waning Crescent, 21% visible
Pressure 29.81 in
Visibility 10.0 miles
Clouds Clear
Heat Index 80 °F
Dew Point 65 °F
Humidity 64%
Rainfall 0.00 in
Snow Depth Not available.
UV 6 out of 12
Pollen 9.90 out of 12
Air Quality Not available.
Flu Activity Not available.
METAR KVVV 201554Z AUTO 16007KT 116V176 10SM CLR 26/19 A2981 RMK AO2

More Conditions Fewer Conditions

Pressure 29.81 in
Visibility 10.0 miles
Clouds Clear
Heat Index 80 °F
Dew Point 65 °F
Humidity 64%
Rainfall 0.00 in
Snow Depth Not available.
UV 6 out of 12
Pollen 9.90 out of 12
Air Quality Not available.
Flu Activity Not available.
METAR KVVV 201554Z AUTO 16007KT 116V176 10SM CLR 26/19 A2981 RMK AO2

More Conditions Fewer Conditions

10-Day Weather Forecast

Almanac

Astronomy

Aug. 20, 2014 Rise Set
Actual Time 6:34 AM CDT 8:26 PM CDT
Civil Twilight 6:03 AM CDT 8:57 PM CDT
Nautical Twilight 5:24 AM CDT 9:36 PM CDT
Astronomical Twilight 4:42 AM CDT 10:18 PM CDT
Moon 2:10 AM CDT 5:17 PM CDT
Length of Visible Light 14h 54m
Length of Day
13h 51m
Tomorrow will be 2m 54s shorter.
Waning Crescent, 21% of the Moon is Illuminated
Today
Waning Crescent
Aug 25
New
Sep 2
First Quarter
Sep 8
Full
Sep 15
Last Quarter

Today's Extremes

State Highs State Lows

Community

WunderPhotos

Upload Photos

1,745,677 photos uploaded!

Nearby

Snow Depth

Station Depth Elevation
North Rapid Creek 0 in 6130 ft
Blind Park 0 in 6890 ft

Earthquake Activity

City Distance Mag. Time & Date
No recent earthquake activity has been reported nearby.
Minimum magnitude displayed is 2.5.

Coastal Water Temperatures

Place Temperature
No Stations Reporting

Nearby Weather Stations